x

Nantucket Sound (44020) Wave Buoy

3:50am - Thu 19th Jan 2017 All times are EST. -5 hours from GMT.

  • Sig Wave height 1.6ft
  • Swell Direction
  • Peak Period 8s
  • Average Period 5s
  • Wind
    9mph, 11mph gusts
  • Sea Temp 41°f
  • Air Temp 40°f
  • Sea Pressure 1014.7mb
  • Nantucket Sound
  • Nantucket Sound

More Historic Weather Station data

Upgrade to MSW Pro to gain access to the past 30 days of data for over 8000 Wavebouys and Weather Stations around the globe.

Join Pro

Comparision Forecast

View Surf forecast
   
Thu 01/19 3:50am 1.6ft 8s 5s 9 11 mph 1014.7mb 41f 40f
2:50am 1.3ft 8s 4s 9 11 mph 1014.9mb 41f 40f
1:50am 1.3ft 5s 4s 13 16 mph 1015mb 41f 41f
12:50am 1.6ft 5s 4s 9 11 mph 1014.2mb 42f 43f
Wed 01/18 11:50pm 1.6ft 5s 4s 11 16 mph 1014mb 43f 43f
10:50pm 2ft 5s 4s 13 18 mph 1014.2mb 43f 43f
9:50pm 2.5ft 5s 4s 16 18 mph 1014.7mb 43f 43f
8:50pm 3ft 5s 4s 18 20 mph 1015.2mb 43f 42f
7:50pm 3.5ft 5s 4s 20 25 mph 1014.6mb 43f 42f
6:50pm 3.5ft 5s 4s 20 22 mph 1014.4mb 43f 42f
5:50pm 4ft 5s 4s 20 27 mph 1013.7mb 43f 43f
4:50pm 4ft 5s 4s 22 29 mph 1012.8mb 41f 42f
3:50pm 3.5ft 5s 4s 22 25 mph 1012.8mb 41f 42f
2:50pm 3.5ft 4s 4s 22 27 mph 1011.8mb 41f 42f
1:50pm 3.5ft 5s 4s 22 29 mph 1010.9mb 41f 42f
12:50pm 3ft 5s 4s 22 29 mph 1010.4mb 41f 42f
11:50am 3ft 4s 4s 22 29 mph 1011.1mb 41f 42f
10:50am 3ft 5s 4s 20 27 mph 1012mb 42f 43f
9:50am 3ft 4s 4s 22 25 mph 1012.8mb 42f 42f
8:50am 3.5ft 4s 4s 22 27 mph 1012.6mb 43f 42f
7:50am 3.5ft 4s 4s 22 27 mph 1012.8mb 42f 42f
6:50am 3.5ft 4s 4s 25 29 mph 1012.4mb 41f 42f
5:50am 3.5ft 6s 4s 25 29 mph 1012.9mb 41f 41f
4:50am 3.5ft 6s 4s 25 29 mph 1013.4mb 40f 41f
3:50am 3.5ft 6s 4s 22 27 mph 1013.9mb 39f 41f
2:50am 2.5ft 5s 4s 22 25 mph 1014.5mb 39f 41f
1:50am 2.5ft 5s 4s 16 18 mph 1015.7mb 39f 41f
12:50am 3ft 5s 4s 13 16 mph 1017.7mb 40f 41f
Tue 01/17 11:50pm 3ft 5s 4s 18 22 mph 1017.1mb 41f 42f
10:50pm 2.5ft 5s 4s 22 27 mph 1018.2mb 41f 42f
9:50pm 2.5ft 5s 4s 18 22 mph 1019.7mb 41f 42f
8:50pm 2.5ft 4s 3s 18 20 mph 1020.7mb 41f 42f
7:50pm 1.6ft 3s 3s 20 22 mph 1020.3mb 41f 42f
6:50pm 1ft 2s 3s 20 22 mph 1020.5mb 41f 43f
5:50pm 0.7ft  -  3s 13 16 mph 1021.6mb 40f 43f
4:50pm 0.3ft  -  3s 11
mph
1021.5mb 40f 42f
3:50pm 0.7ft  -  3s 2
mph
1021.6mb 39f 39f
2:50pm 0.7ft  -  4s 2
mph
1021.6mb 39f 39f
1:50pm 0.7ft  -  4s 2
mph
1021.7mb 39f 38f
12:50pm 0.3ft  -  4s 2
mph
1022.3mb 39f 38f
11:50am 0.3ft  -  3s 2 4 mph 1023.1mb 39f 38f
10:50am 0.7ft  -  3s 4 7 mph 1023.6mb 40f 38f
9:50am 0.7ft  -  4s 9 11 mph 1024.5mb 40f 39f
8:50am 0.7ft  -  3s 9 11 mph 1024mb 40f 40f
7:50am 0.7ft  -  3s 9 11 mph 1023.6mb 40f 40f
6:50am 0.7ft  -  3s 9 11 mph 1022.8mb 40f 40f
5:50am 0.7ft  -  3s 11 13 mph 1023mb 40f 40f
4:50am 1ft 3s 3s 7 9 mph 1022.7mb 39f 40f
3:50am 1ft 3s 3s 11
mph
1022.7mb 39f 40f
2:50am 1.3ft 3s 3s 13
mph
1022.9mb 39f 40f
1:50am 1.6ft 3s 3s 16 20 mph 1022.8mb 39f 40f
12:50am 1.6ft 3s 3s 18 20 mph 1023mb 39f 40f
Mon 01/16 11:50pm 1.6ft 3s 3s 18 20 mph 1023.6mb 39f 39f
10:50pm 1.6ft 3s 3s 20 25 mph 1024.1mb 39f 40f
9:50pm 1.6ft 3s 3s 20 25 mph 1024.6mb 40f 40f
8:50pm 1.6ft 3s 3s 20 22 mph 1025mb 41f 40f
7:50pm 2ft 3s 3s 20 25 mph 1025.4mb 42f 40f
6:50pm 2ft 4s 3s 20 25 mph 1025.8mb 42f 40f
5:50pm 2ft 4s 4s 20 25 mph 1025.9mb 41f 39f
4:50pm 1.6ft 4s 4s 20 22 mph 1026.2mb 40f 39f
3:50pm 1.6ft 4s 4s 18 22 mph 1026.8mb 39f 39f
2:50pm 1.6ft 4s 3s 18 22 mph 1026.9mb 39f 39f
1:50pm 1.3ft 3s 3s 18 20 mph 1027.3mb 39f 39f
12:50pm 1ft 5s 3s 16 18 mph 1027.8mb 39f 39f
11:50am 0.3ft  -  4s 13 16 mph 1029mb 39f 37f
10:50am 0.3ft  -  4s 11 13 mph 1030.4mb 39f 37f
9:50am 0.7ft  -  4s 9
mph
1030.9mb 39f 36f
8:50am 0.3ft  -  5s 4 7 mph 1030.8mb 40f 36f
7:50am 0.7ft  -  4s 2 4 mph 1030.8mb 41f 36f
6:50am 0.3ft  -  4s  -  2 mph 1030.4mb 41f 35f
5:50am 0.3ft  -  4s  -  2 mph 1030.5mb 41f 35f
4:50am 0.7ft  -  4s 4
mph
1030.4mb 40f 35f
3:50am 0.7ft  -  3s 7 9 mph 1030.2mb 39f 35f
2:50am 1ft 3s 3s 7 9 mph 1030.2mb 39f 35f
1:50am 1ft 4s 4s 7 9 mph 1029.9mb 39f 35f
12:50am 0.7ft  -  3s 9 11 mph 1029mb 39f 35f
Sun 01/15 11:50pm 0.7ft  -  3s 9 11 mph 1029.1mb 39f 35f
10:50pm 0.3ft  -  3s 9 11 mph 1029.1mb 39f 36f
9:50pm 0.7ft  -  3s 9 11 mph 1029.3mb 40f 36f
8:50pm 0.7ft  -  3s 9 11 mph 1028.3mb 40f 36f
7:50pm 1ft 3s 3s 9 13 mph 1028.1mb 40f 36f
6:50pm 1.3ft 3s 3s 13 16 mph 1027.6mb 40f 36f
5:50pm 1.6ft 3s 3s 13 18 mph 1026.9mb 40f 36f
4:50pm 2ft 4s 3s 16 20 mph 1026.2mb 40f 36f
3:50pm 2ft 4s 3s 20 22 mph 1025.4mb 39f 35f
2:50pm 2ft 4s 3s 18 20 mph 1025.1mb 39f 35f
1:50pm 2.5ft 4s 3s 18 25 mph 1024.6mb 39f 35f
12:50pm 2.5ft 4s 3s 20 27 mph 1024.2mb 39f 34f
11:50am 2ft 3s 3s 22 27 mph 1024.2mb 39f 34f
10:50am 2ft 3s 3s 20 25 mph 1024.6mb 39f 34f